createdAt,value
2023-05-15T00:01:41.769Z,95333.06
2023-05-15T00:04:09.740Z,95315.34
2023-05-15T00:06:37.738Z,95314.56
2023-05-15T00:09:05.704Z,95304.56
2023-05-15T00:11:35.030Z,95312.31
2023-05-15T00:14:02.906Z,95315.81
2023-05-15T00:16:30.962Z,95331.97
2023-05-15T00:18:59.087Z,95348.06
2023-05-15T00:21:27.160Z,95342.69
2023-05-15T00:23:55.108Z,95354.41
2023-05-15T00:26:25.156Z,95353.47
2023-05-15T00:28:54.524Z,95362.16
2023-05-15T00:31:22.497Z,95345.06
2023-05-15T00:33:50.642Z,95362.81
2023-05-15T00:36:18.694Z,95352.03
2023-05-15T00:38:46.612Z,95352.69
2023-05-15T00:41:15.438Z,95356.31
2023-05-15T00:43:44.646Z,95337.19
2023-05-15T00:46:14.339Z,95336.75
2023-05-15T00:48:44.164Z,95336.44
2023-05-15T00:51:13.154Z,95335.31
2023-05-15T00:53:41.610Z,95343.56
2023-05-15T00:56:10.507Z,95338.84
2023-05-15T00:58:39.609Z,95345.81
2023-05-15T01:01:08.776Z,95332.69
2023-05-15T01:03:38.238Z,95338.19
2023-05-15T01:06:06.918Z,95345.16
2023-05-15T01:08:39.904Z,95338.69
2023-05-15T01:11:09.904Z,95330.78
2023-05-15T01:13:37.913Z,95336.81
2023-05-15T01:16:07.359Z,95344.88
2023-05-15T01:18:35.756Z,95341.09
2023-05-15T01:21:31.967Z,95339.97
2023-05-15T01:24:12.704Z,95331.34
2023-05-15T01:27:05.511Z,95323.34
2023-05-15T01:29:42.467Z,95323.34
2023-05-15T01:32:13.827Z,95322.41
2023-05-15T01:34:57.051Z,95310.69
2023-05-15T01:37:30.112Z,95301.25
2023-05-15T01:40:02.630Z,95315.16
2023-05-15T01:42:35.667Z,95306.63
2023-05-15T01:45:06.853Z,95295.84
2023-05-15T01:47:40.763Z,95298.88
2023-05-15T01:50:12.690Z,95297.94
2023-05-15T01:52:44.548Z,95305.03
2023-05-15T01:55:14.749Z,95303.47
2023-05-15T01:57:46.349Z,95281.31
2023-05-15T02:00:15.552Z,95291.09
2023-05-15T02:02:44.287Z,95300.31
2023-05-15T02:05:13.405Z,95300.59
2023-05-15T02:07:43.701Z,95304.84
2023-05-15T02:10:13.797Z,95314.06
2023-05-15T02:12:44.558Z,95312.47
2023-05-15T02:15:13.201Z,95317.84
2023-05-15T02:17:41.404Z,95306.91
2023-05-15T02:20:10.328Z,95308.50
2023-05-15T02:22:38.335Z,95294.69
2023-05-15T02:25:06.999Z,95295.34
2023-05-15T02:27:40.201Z,95298.81
2023-05-15T02:30:21.517Z,95304.03
2023-05-15T02:32:57.422Z,95273.25
2023-05-15T02:35:33.280Z,95266.03
2023-05-15T02:38:05.016Z,95262.03
2023-05-15T02:40:34.628Z,95264.09
2023-05-15T02:43:03.391Z,95267.22
2023-05-15T02:45:33.852Z,95278.81
2023-05-15T02:48:03.469Z,95287.50
2023-05-15T02:50:31.834Z,95295.25
2023-05-15T02:53:07.443Z,95293.66
2023-05-15T02:55:35.968Z,95279.19
2023-05-15T02:58:05.011Z,95284.47
2023-05-15T03:00:34.493Z,95283.66
2023-05-15T03:03:02.482Z,95270.19
2023-05-15T03:05:30.448Z,95280.19
2023-05-15T03:07:59.180Z,95285.56
2023-05-15T03:10:27.108Z,95290.13
2023-05-15T03:12:58.406Z,95292.03
2023-05-15T03:15:26.960Z,95300.09
2023-05-15T03:17:56.517Z,95307.53
2023-05-15T03:20:24.532Z,95296.03
2023-05-15T03:22:52.413Z,95292.09
2023-05-15T03:25:21.254Z,95291.75
2023-05-15T03:27:49.203Z,95289.22
2023-05-15T03:30:17.103Z,95282.38
2023-05-15T03:32:45.022Z,95284.03
2023-05-15T03:35:14.519Z,95280.09
2023-05-15T03:37:42.466Z,95296.88
2023-05-15T03:40:11.099Z,95274.84
2023-05-15T03:42:39.063Z,95275.50
2023-05-15T03:45:08.246Z,95272.63
2023-05-15T03:47:36.249Z,95270.38
2023-05-15T03:50:04.363Z,95278.94
2023-05-15T03:52:33.762Z,95285.56
2023-05-15T03:55:02.885Z,95286.16
2023-05-15T03:57:30.909Z,95287.53
2023-05-15T03:59:59.050Z,95286.44
2023-05-15T04:02:27.023Z,95283.56
2023-05-15T04:04:55.033Z,95271.72
2023-05-15T04:07:23.053Z,95268.50
2023-05-15T04:09:52.468Z,95273.53
2023-05-15T04:12:20.492Z,95271.44
2023-05-15T04:14:48.423Z,95265.09
2023-05-15T04:17:16.286Z,95282.53
2023-05-15T04:19:46.006Z,95282.41
2023-05-15T04:22:14.114Z,95296.25
2023-05-15T04:24:42.093Z,95301.81
2023-05-15T04:27:11.611Z,95295.63
2023-05-15T04:29:40.738Z,95306.19
2023-05-15T04:32:12.947Z,95295.97
2023-05-15T04:34:41.442Z,95300.56
2023-05-15T04:37:12.257Z,95287.53
2023-05-15T04:39:40.237Z,95286.88
2023-05-15T04:42:08.379Z,95297.78
2023-05-15T04:44:37.800Z,95270.81
2023-05-15T04:47:07.870Z,95275.69
2023-05-15T04:49:35.958Z,95265.81
2023-05-15T04:52:04.185Z,95263.13
2023-05-15T04:54:32.569Z,95278.19
2023-05-15T04:57:00.680Z,95285.66
2023-05-15T04:59:28.765Z,95288.69
2023-05-15T05:01:58.407Z,95280.91
2023-05-15T05:04:26.452Z,95287.25
2023-05-15T05:06:54.433Z,95281.19
2023-05-15T05:09:22.330Z,95284.81
2023-05-15T05:11:50.301Z,95271.88
2023-05-15T05:14:18.418Z,95256.03
2023-05-15T05:16:46.741Z,95252.22
2023-05-15T05:19:16.137Z,95264.06
2023-05-15T05:21:44.468Z,95260.47
2023-05-15T05:24:12.817Z,95260.59
2023-05-15T05:26:40.933Z,95268.94
2023-05-15T05:29:08.932Z,95264.78
2023-05-15T05:31:36.884Z,95266.47
2023-05-15T05:34:04.842Z,95270.97
2023-05-15T05:36:34.152Z,95265.47
2023-05-15T05:39:02.256Z,95266.50
2023-05-15T05:41:30.849Z,95263.47
2023-05-15T05:43:58.899Z,95260.97
2023-05-15T05:46:27.744Z,95259.97
2023-05-15T05:48:56.126Z,95274.81
2023-05-15T05:51:24.856Z,95270.78
2023-05-15T05:53:54.732Z,95275.06
2023-05-15T05:56:23.977Z,95261.34
2023-05-15T05:58:52.311Z,95224.72
2023-05-15T06:01:21.105Z,95263.28
2023-05-15T06:03:49.562Z,95273.31
2023-05-15T06:06:18.132Z,95273.19
2023-05-15T06:08:47.025Z,95271.63
2023-05-15T06:11:16.742Z,95266.03
2023-05-15T06:13:45.015Z,95275.03
2023-05-15T06:16:13.766Z,95265.91
2023-05-15T06:18:42.116Z,95251.34
2023-05-15T06:21:10.691Z,95257.66
2023-05-15T06:23:39.065Z,95253.47
2023-05-15T06:26:10.317Z,95249.53
2023-05-15T06:28:40.073Z,95255.16
2023-05-15T06:31:08.258Z,95267.06
2023-05-15T06:33:37.161Z,95262.22
2023-05-15T06:36:05.900Z,95273.03
2023-05-15T06:38:34.534Z,95281.94
2023-05-15T06:41:03.079Z,95272.88
2023-05-15T06:43:31.710Z,95281.47
2023-05-15T06:46:02.077Z,95291.16
2023-05-15T06:48:31.710Z,95289.94
2023-05-15T06:51:00.561Z,95293.19
2023-05-15T06:53:31.039Z,95280.69
2023-05-15T06:55:59.516Z,95290.22
2023-05-15T06:58:28.321Z,95291.88
2023-05-15T07:01:01.552Z,95297.09
2023-05-15T07:03:30.451Z,95300.28
2023-05-15T07:05:58.521Z,95309.19
2023-05-15T07:08:27.001Z,95292.66
2023-05-15T07:10:55.001Z,95298.00
2023-05-15T07:13:23.012Z,95258.81
2023-05-15T07:15:51.056Z,95284.19
2023-05-15T07:18:20.651Z,95281.81
2023-05-15T07:20:48.750Z,95284.94
2023-05-15T07:23:17.357Z,95280.91
2023-05-15T07:25:46.084Z,95280.28
2023-05-15T07:28:14.276Z,95285.16
2023-05-15T07:30:42.428Z,95275.00
2023-05-15T07:33:10.472Z,95265.13
2023-05-15T07:35:39.961Z,95286.13
2023-05-15T07:38:08.049Z,95293.56
2023-05-15T07:40:36.571Z,95271.78
2023-05-15T07:43:04.644Z,95267.19
2023-05-15T07:45:32.590Z,95232.00
2023-05-15T07:48:00.955Z,95281.88
2023-05-15T07:50:28.917Z,95285.31
2023-05-15T07:52:58.392Z,95285.69
2023-05-15T07:55:26.507Z,95261.13
2023-05-15T07:57:54.576Z,95274.72
2023-05-15T08:00:23.511Z,95295.28
2023-05-15T08:02:51.844Z,95302.88
2023-05-15T08:05:19.949Z,95268.63
2023-05-15T08:07:47.920Z,95290.47
2023-05-15T08:10:17.272Z,95301.06
2023-05-15T08:12:47.171Z,95305.06
2023-05-15T08:15:15.500Z,95295.03
2023-05-15T08:17:43.734Z,95303.41
2023-05-15T08:20:12.839Z,95309.25
2023-05-15T08:22:40.950Z,95297.81
2023-05-15T08:25:10.063Z,95298.69
2023-05-15T08:27:39.798Z,95299.56
2023-05-15T08:30:09.236Z,95260.50
2023-05-15T08:32:37.199Z,95299.09
2023-05-15T08:35:05.705Z,95289.50
2023-05-15T08:37:34.701Z,95301.81
2023-05-15T08:40:02.921Z,95295.16
2023-05-15T08:42:36.793Z,95285.16
2023-05-15T08:45:09.062Z,95283.19
2023-05-15T08:47:41.320Z,95261.66
2023-05-15T08:50:15.431Z,95262.72
2023-05-15T08:52:45.834Z,95261.06
2023-05-15T08:55:15.239Z,95218.44
2023-05-15T08:57:44.112Z,95272.25
2023-05-15T09:00:15.140Z,95260.53
2023-05-15T09:02:43.953Z,95255.28
2023-05-15T09:05:12.176Z,95271.34
2023-05-15T09:07:42.309Z,95260.16
2023-05-15T09:10:11.522Z,95249.13
2023-05-15T09:12:44.656Z,95253.31
2023-05-15T09:15:17.961Z,95266.06
2023-05-15T09:17:47.054Z,95248.53
2023-05-15T09:20:29.550Z,95265.19
2023-05-15T09:22:58.016Z,95246.19
2023-05-15T09:25:39.480Z,95244.63
2023-05-15T09:28:08.948Z,95233.34
2023-05-15T09:30:42.909Z,95228.31
2023-05-15T09:33:13.311Z,95239.53
2023-05-15T09:35:41.977Z,95233.31
2023-05-15T09:38:11.794Z,95238.78
2023-05-15T09:40:41.166Z,95219.34
2023-05-15T09:43:13.576Z,95212.41
2023-05-15T09:45:43.459Z,95204.19
2023-05-15T09:48:12.563Z,95213.19
2023-05-15T09:50:42.785Z,95199.09
2023-05-15T09:53:14.026Z,95182.63
2023-05-15T09:55:43.706Z,95189.47
2023-05-15T09:58:13.467Z,95182.09
2023-05-15T10:00:48.610Z,95184.53
2023-05-15T10:03:20.045Z,95198.75
2023-05-15T10:05:48.157Z,95188.44
2023-05-15T10:08:16.621Z,95174.06
2023-05-15T10:10:46.116Z,95163.06
2023-05-15T10:13:14.579Z,95185.84
2023-05-15T10:15:44.077Z,95185.66
2023-05-15T10:18:14.167Z,95173.31
2023-05-15T10:20:42.758Z,95174.72
2023-05-15T10:23:13.490Z,95157.31
2023-05-15T10:25:47.121Z,95206.50
2023-05-15T10:28:16.586Z,95195.50
2023-05-15T10:30:47.176Z,95212.03
2023-05-15T10:33:16.671Z,95205.69
2023-05-15T10:35:45.967Z,95213.13
2023-05-15T10:38:14.800Z,95210.03
2023-05-15T10:40:43.400Z,95226.41
2023-05-15T10:43:14.190Z,95221.75
2023-05-15T10:45:42.602Z,95223.81
2023-05-15T10:48:13.749Z,95218.13
2023-05-15T10:50:42.198Z,95221.34
2023-05-15T10:53:11.365Z,95199.66
2023-05-15T10:55:39.495Z,95206.81
2023-05-15T10:58:11.114Z,95202.25
2023-05-15T11:00:44.596Z,95209.66
2023-05-15T11:03:17.075Z,95223.75
2023-05-15T11:06:11.018Z,95213.88
2023-05-15T11:08:40.062Z,95218.63
2023-05-15T11:11:08.376Z,95210.47
2023-05-15T11:14:13.572Z,95211.00
2023-05-15T11:17:05.056Z,95207.94
2023-05-15T11:19:37.145Z,95196.47
2023-05-15T11:22:18.487Z,95191.81
2023-05-15T11:24:54.231Z,95191.81
2023-05-15T11:27:24.528Z,95207.31
2023-05-15T11:30:09.651Z,95206.78
2023-05-15T11:32:58.286Z,95196.03
2023-05-15T11:35:30.309Z,95208.66
2023-05-15T11:38:00.022Z,95215.84
2023-05-15T11:40:29.670Z,95203.66
2023-05-15T11:43:09.041Z,95184.69
2023-05-15T11:45:38.930Z,95174.59
2023-05-15T11:48:09.204Z,95170.56
2023-05-15T11:50:38.902Z,95164.66
2023-05-15T11:53:08.292Z,95154.34
2023-05-15T11:55:38.031Z,95171.94
2023-05-15T11:58:07.023Z,95152.56
2023-05-15T12:00:35.402Z,95124.59
2023-05-15T12:03:04.850Z,95163.19
2023-05-15T12:05:33.115Z,95125.06
2023-05-15T12:08:02.566Z,95162.56
2023-05-15T12:10:31.449Z,95129.31
2023-05-15T12:13:00.168Z,95161.22
2023-05-15T12:15:28.228Z,95162.72
2023-05-15T12:17:56.442Z,95146.50
2023-05-15T12:20:24.734Z,95148.06
2023-05-15T12:22:52.976Z,95149.81
2023-05-15T12:25:22.863Z,95136.63
2023-05-15T12:27:51.227Z,95145.28
2023-05-15T12:30:19.896Z,95134.72
2023-05-15T12:32:48.459Z,94955.88
2023-05-15T12:35:17.279Z,95099.72
2023-05-15T12:37:46.284Z,95105.78
2023-05-15T12:40:15.348Z,95090.41
2023-05-15T12:42:45.819Z,95087.19
2023-05-15T12:45:18.259Z,95078.19
2023-05-15T12:47:47.593Z,95080.56
2023-05-15T12:50:17.031Z,95063.69
2023-05-15T12:52:51.449Z,95064.53
2023-05-15T12:55:23.471Z,95080.56
2023-05-15T12:57:53.499Z,95037.69
2023-05-15T13:00:26.561Z,95041.66
2023-05-15T13:02:56.521Z,95087.53
2023-05-15T13:05:27.678Z,95097.13
2023-05-15T13:07:58.360Z,95100.47
2023-05-15T13:10:27.306Z,95060.63
2023-05-15T13:12:59.659Z,95093.66
2023-05-15T13:15:33.310Z,95082.38
2023-05-15T13:18:06.580Z,95084.28
2023-05-15T13:20:38.273Z,95073.47
2023-05-15T13:23:09.117Z,95072.44
2023-05-15T13:25:39.587Z,95056.47
2023-05-15T13:28:10.666Z,94968.06
2023-05-15T13:30:41.803Z,94957.22
2023-05-15T13:33:10.850Z,95044.06
2023-05-15T13:35:39.080Z,95069.81
2023-05-15T13:38:10.390Z,95092.03
2023-05-15T13:40:40.539Z,95057.50
2023-05-15T13:43:09.907Z,95066.41
2023-05-15T13:45:37.911Z,95096.38
2023-05-15T13:48:06.465Z,95103.78
2023-05-15T13:50:35.064Z,95088.56
2023-05-15T13:53:03.087Z,95094.81
2023-05-15T13:55:31.638Z,95095.59
2023-05-15T13:57:59.894Z,95091.81
2023-05-15T14:00:29.206Z,95094.94
2023-05-15T14:02:57.376Z,95059.00
2023-05-15T14:05:25.548Z,95102.16
2023-05-15T14:07:53.590Z,95095.44
2023-05-15T14:10:21.858Z,95096.88
2023-05-15T14:12:49.954Z,95093.38
2023-05-15T14:15:18.149Z,95093.41
2023-05-15T14:17:48.916Z,95093.53
2023-05-15T14:20:16.956Z,95084.28
2023-05-15T14:22:45.015Z,95060.50
2023-05-15T14:25:13.002Z,95075.84
2023-05-15T14:27:41.059Z,95072.81
2023-05-15T14:30:10.274Z,95081.34
2023-05-15T14:32:38.752Z,95072.81
2023-05-15T14:35:09.745Z,95076.34
2023-05-15T14:37:38.503Z,95066.19
2023-05-15T14:40:08.161Z,95072.84
2023-05-15T14:42:36.252Z,95054.47
2023-05-15T14:45:04.998Z,95027.53
2023-05-15T14:47:33.849Z,95041.22
2023-05-15T14:50:02.603Z,95054.88
2023-05-15T14:52:32.215Z,95053.25
2023-05-15T14:57:35.898Z,95046.19
2023-05-15T15:00:06.110Z,95043.84
2023-05-15T15:02:34.627Z,95058.25
2023-05-15T15:05:03.256Z,95048.44
2023-05-15T15:07:33.818Z,95038.69
2023-05-15T15:10:01.764Z,95043.31
2023-05-15T15:12:29.682Z,95040.63
2023-05-15T15:14:57.628Z,95024.59
2023-05-15T15:17:25.592Z,95013.63
2023-05-15T15:19:53.533Z,95023.72
2023-05-15T15:22:21.500Z,95025.28
2023-05-15T15:24:50.923Z,95058.28
2023-05-15T15:27:19.240Z,95029.00
2023-05-15T15:29:47.140Z,95025.03
2023-05-15T15:32:15.718Z,95019.91
2023-05-15T15:34:43.799Z,95018.38
2023-05-15T15:37:12.832Z,95024.97
2023-05-15T15:39:40.948Z,95010.50
2023-05-15T15:42:10.470Z,95017.94
2023-05-15T15:44:38.557Z,95037.31
2023-05-15T15:47:06.773Z,95023.25
2023-05-15T15:49:34.705Z,95035.31
2023-05-15T15:52:02.712Z,95027.16
2023-05-15T15:54:33.249Z,95015.47
2023-05-15T15:57:01.587Z,95003.25
2023-05-15T15:59:30.985Z,95026.34
2023-05-15T16:01:59.397Z,95037.63
2023-05-15T16:04:27.370Z,95039.09
2023-05-15T16:06:55.758Z,95055.00
2023-05-15T16:09:23.686Z,95055.81
2023-05-15T16:11:51.662Z,95054.66
2023-05-15T16:14:20.887Z,95033.16
2023-05-15T16:16:50.904Z,94892.56
2023-05-15T16:19:18.940Z,95041.91
2023-05-15T16:21:47.290Z,95032.25
2023-05-15T16:24:15.440Z,95032.09
2023-05-15T16:26:43.408Z,95048.44
2023-05-15T16:29:11.342Z,95035.19
2023-05-15T16:31:39.476Z,95054.63
2023-05-15T16:34:09.853Z,95059.22
2023-05-15T16:36:37.876Z,95058.78
2023-05-15T16:39:08.005Z,95056.00
2023-05-15T16:41:37.342Z,95054.47
2023-05-15T16:44:10.831Z,95052.06
2023-05-15T16:46:39.291Z,95055.13
2023-05-15T16:49:08.688Z,95062.09
2023-05-15T16:51:37.712Z,95062.88
2023-05-15T16:54:06.081Z,95045.75
2023-05-15T16:56:34.087Z,95054.41
2023-05-15T16:59:02.033Z,95051.22
2023-05-15T17:01:30.047Z,95057.34
2023-05-15T17:03:58.243Z,95053.75
2023-05-15T17:06:27.642Z,95057.56
2023-05-15T17:08:55.671Z,95070.16
2023-05-15T17:11:23.655Z,95063.50
2023-05-15T17:13:51.708Z,95065.78
2023-05-15T17:16:19.653Z,95072.31
2023-05-15T17:18:50.329Z,95058.97
2023-05-15T17:21:18.519Z,95059.19
2023-05-15T17:23:47.983Z,95062.75
2023-05-15T17:26:15.938Z,95075.56
2023-05-15T17:28:43.936Z,95066.13
2023-05-15T17:31:11.927Z,95055.53
2023-05-15T17:33:40.580Z,95086.69
2023-05-15T17:36:09.353Z,95085.06
2023-05-15T17:38:37.300Z,95083.03
2023-05-15T17:41:08.255Z,95096.19
2023-05-15T17:43:36.191Z,95022.25
2023-05-15T17:48:34.036Z,95073.56
2023-05-15T17:51:01.952Z,95069.81
2023-05-15T17:53:29.890Z,95113.59
2023-05-15T17:55:58.991Z,95131.03
2023-05-15T17:58:28.491Z,95129.81
2023-05-15T18:00:57.390Z,95110.69
2023-05-15T18:03:25.874Z,95119.28
2023-05-15T18:05:54.075Z,95106.72
2023-05-15T18:08:22.642Z,95095.19
2023-05-15T18:10:50.693Z,95105.25
2023-05-15T18:13:19.332Z,95099.81
2023-05-15T18:15:49.075Z,95092.75
2023-05-15T18:18:17.132Z,95039.66
2023-05-15T18:20:45.197Z,95041.66
2023-05-15T18:23:13.715Z,95065.78
2023-05-15T18:25:43.432Z,95093.97
2023-05-15T18:28:11.529Z,95111.25
2023-05-15T18:30:39.480Z,95071.94
2023-05-15T18:33:09.116Z,95094.97
2023-05-15T18:35:37.217Z,95106.66
2023-05-15T18:38:05.205Z,95092.28
2023-05-15T18:40:33.529Z,95098.06
2023-05-15T18:43:01.857Z,95081.44
2023-05-15T18:45:29.859Z,95109.19
2023-05-15T18:47:57.855Z,95108.53
2023-05-15T18:50:27.690Z,95103.84
2023-05-15T18:52:55.669Z,95104.94
2023-05-15T18:55:24.055Z,95094.66
2023-05-15T18:57:52.148Z,95092.53
2023-05-15T19:00:36.500Z,95101.47
2023-05-15T19:03:05.864Z,95111.13
2023-05-15T19:05:35.540Z,95106.47
2023-05-15T19:08:04.374Z,95086.81
2023-05-15T19:10:41.932Z,95123.72
2023-05-15T19:13:09.845Z,95119.75
2023-05-15T19:15:37.948Z,95131.88
2023-05-15T19:18:06.636Z,95142.72
2023-05-15T19:20:36.834Z,95138.03
2023-05-15T19:23:04.817Z,95135.31
2023-05-15T19:25:32.759Z,95147.69
2023-05-15T19:28:00.664Z,95143.31
2023-05-15T19:30:28.731Z,95141.34
2023-05-15T19:32:56.753Z,95147.09
2023-05-15T19:35:24.871Z,95147.41
2023-05-15T19:37:54.207Z,95143.53
2023-05-15T19:40:22.182Z,95151.22
2023-05-15T19:42:50.189Z,95126.91
2023-05-15T19:45:18.312Z,95117.34
2023-05-15T19:47:46.342Z,95159.97
2023-05-15T19:50:14.534Z,95164.38
2023-05-15T19:52:45.214Z,95159.38
2023-05-15T19:55:15.270Z,95146.94
2023-05-15T19:57:45.243Z,95118.84
2023-05-15T20:00:14.554Z,95166.00
2023-05-15T20:02:42.657Z,95167.59
2023-05-15T20:05:11.090Z,95167.59
2023-05-15T20:07:39.403Z,95148.97
2023-05-15T20:10:09.197Z,95155.09
2023-05-15T20:12:38.776Z,95140.66
2023-05-15T20:15:08.703Z,95144.25
2023-05-15T20:17:36.764Z,95077.56
2023-05-15T20:20:08.162Z,95132.03
2023-05-15T20:22:36.239Z,95151.03
2023-05-15T20:25:04.388Z,95130.00
2023-05-15T20:27:32.305Z,95125.41
2023-05-15T20:30:02.916Z,95113.72
2023-05-15T20:32:31.976Z,95120.81
2023-05-15T20:35:00.660Z,95110.75
2023-05-15T20:37:30.397Z,95120.81
2023-05-15T20:40:00.065Z,95073.72
2023-05-15T20:42:32.360Z,95087.19
2023-05-15T20:45:01.703Z,95088.53
2023-05-15T20:47:29.768Z,95106.09
2023-05-15T20:49:57.737Z,95090.66
2023-05-15T20:52:25.727Z,95078.09
2023-05-15T20:54:53.683Z,95080.94
2023-05-15T20:57:21.726Z,95077.03
2023-05-15T20:59:49.672Z,95079.69
2023-05-15T21:02:19.100Z,95080.53
2023-05-15T21:04:47.064Z,95077.81
2023-05-15T21:07:15.034Z,95071.97
2023-05-15T21:09:43.040Z,95067.19
2023-05-15T21:12:11.453Z,95075.88
2023-05-15T21:14:39.943Z,95085.53
2023-05-15T21:17:08.337Z,95080.81
2023-05-15T21:19:37.819Z,95077.97
2023-05-15T21:22:06.055Z,95083.47
2023-05-15T21:24:35.480Z,95090.03
2023-05-15T21:27:03.491Z,95091.25
2023-05-15T21:29:31.404Z,95081.97
2023-05-15T21:31:59.346Z,95073.47
2023-05-15T21:34:27.327Z,95062.47
2023-05-15T21:36:56.630Z,95086.69
2023-05-15T21:39:25.029Z,95082.47
2023-05-15T21:41:53.396Z,95079.75
2023-05-15T21:44:22.380Z,95082.09
2023-05-15T21:46:50.788Z,95071.25
2023-05-15T21:49:18.838Z,95067.69
2023-05-15T21:51:46.814Z,95052.28
2023-05-15T21:54:16.189Z,95072.38
2023-05-15T21:56:44.080Z,95057.13
2023-05-15T21:59:14.229Z,95062.81
2023-05-15T22:01:42.398Z,95056.97
2023-05-15T22:04:10.664Z,95075.69
2023-05-15T22:06:38.627Z,95082.72
2023-05-15T22:09:06.783Z,95076.84
2023-05-15T22:11:36.090Z,95084.63
2023-05-15T22:14:04.148Z,95086.19
2023-05-15T22:16:32.126Z,95046.28
2023-05-15T22:19:00.239Z,95073.06
2023-05-15T22:21:28.190Z,95094.53
2023-05-15T22:23:56.123Z,95101.16
2023-05-15T22:26:24.380Z,95088.72
2023-05-15T22:28:56.723Z,95098.63
2023-05-15T22:31:24.699Z,95097.06
2023-05-15T22:33:52.934Z,95093.56
2023-05-15T22:36:21.355Z,95090.53
2023-05-15T22:38:49.360Z,95091.66
2023-05-15T22:41:17.309Z,95094.38
2023-05-15T22:43:45.236Z,95079.28
2023-05-15T22:46:16.114Z,95064.69
2023-05-15T22:48:44.076Z,95091.03
2023-05-15T22:51:12.180Z,95086.69
2023-05-15T22:53:40.118Z,95084.69
2023-05-15T22:56:08.530Z,95087.41
2023-05-15T22:58:36.499Z,95078.84
2023-05-15T23:01:07.936Z,95067.13
2023-05-15T23:03:37.449Z,95071.41
2023-05-15T23:06:17.681Z,95061.53
2023-05-15T23:08:46.068Z,95066.69
2023-05-15T23:11:14.013Z,95063.97
2023-05-15T23:13:42.008Z,95074.50
2023-05-15T23:16:10.106Z,95074.91
2023-05-15T23:18:39.571Z,95074.53
2023-05-15T23:21:07.555Z,95071.81
2023-05-15T23:23:35.707Z,95063.97
2023-05-15T23:26:03.624Z,95065.88
2023-05-15T23:28:31.663Z,95060.75
2023-05-15T23:30:59.601Z,95066.47
2023-05-15T23:33:27.551Z,95067.19
2023-05-15T23:35:56.931Z,95047.22
2023-05-15T23:38:24.942Z,95065.09
2023-05-15T23:40:53.022Z,95065.09
2023-05-15T23:43:21.876Z,95050.19
2023-05-15T23:45:49.910Z,95058.34
2023-05-15T23:48:18.010Z,95050.84
2023-05-15T23:50:46.130Z,95055.81
2023-05-15T23:53:15.494Z,95060.81
2023-05-15T23:55:43.378Z,95056.59
2023-05-15T23:58:11.352Z,95046.16
